createdAt,value
2018-06-11T00:01:05.335Z,1007.22
2018-06-11T00:02:05.244Z,1007.23
2018-06-11T00:03:58.519Z,1007.19
2018-06-11T00:04:58.455Z,1007.16
2018-06-11T00:06:51.859Z,1007.15
2018-06-11T00:07:51.672Z,1007.14
2018-06-11T00:09:45.057Z,1007.13
2018-06-11T00:10:44.887Z,1007.13
2018-06-11T00:12:38.289Z,1007.18
2018-06-11T00:13:38.103Z,1007.18
2018-06-11T00:15:31.383Z,1007.19
2018-06-11T00:16:31.316Z,1007.20
2018-06-11T00:18:24.627Z,1007.25
2018-06-11T00:19:24.545Z,1007.21
2018-06-11T00:21:17.821Z,1007.25
2018-06-11T00:22:17.758Z,1007.19
2018-06-11T00:24:11.054Z,1007.19
2018-06-11T00:25:10.975Z,1007.20
2018-06-11T00:27:04.490Z,1007.20
2018-06-11T00:28:04.394Z,1007.20
2018-06-11T00:29:57.666Z,1007.17
2018-06-11T00:30:57.602Z,1007.16
2018-06-11T00:32:50.900Z,1007.17
2018-06-11T00:33:50.821Z,1007.23
2018-06-11T00:35:44.093Z,1007.24
2018-06-11T00:36:44.031Z,1007.26
2018-06-11T00:38:37.432Z,1007.18
2018-06-11T00:39:37.245Z,1007.21
2018-06-11T00:41:30.522Z,1007.19
2018-06-11T00:42:30.458Z,1007.18
2018-06-11T00:44:23.756Z,1007.23
2018-06-11T00:45:23.673Z,1007.25
2018-06-11T00:47:16.950Z,1007.28
2018-06-11T00:48:16.890Z,1007.23
2018-06-11T00:50:10.185Z,1007.24
2018-06-11T00:51:10.104Z,1007.23
2018-06-11T00:53:03.412Z,1007.21
2018-06-11T00:54:03.317Z,1007.19
2018-06-11T00:55:56.697Z,1007.17
2018-06-11T00:56:56.531Z,1007.21
2018-06-11T00:58:49.931Z,1007.24
2018-06-11T00:59:49.743Z,1007.24
2018-06-11T01:01:43.021Z,1007.26
2018-06-11T01:02:42.957Z,1007.28
2018-06-11T01:04:36.469Z,1007.30
2018-06-11T01:05:36.389Z,1007.27
2018-06-11T01:07:29.769Z,1007.30
2018-06-11T01:08:29.598Z,1007.27
2018-06-11T01:10:22.889Z,1007.23
2018-06-11T01:11:22.808Z,1007.27
2018-06-11T01:13:16.104Z,1007.22
2018-06-11T01:14:16.024Z,1007.25
2018-06-11T01:16:09.319Z,1007.27
2018-06-11T01:17:09.238Z,1007.29
2018-06-11T01:19:02.534Z,1007.29
2018-06-11T01:20:02.455Z,1007.27
2018-06-11T01:21:55.729Z,1007.29
2018-06-11T01:22:55.669Z,1007.33
2018-06-11T01:24:48.963Z,1007.34
2018-06-11T01:25:48.880Z,1007.26
2018-06-11T01:27:42.159Z,1007.30
2018-06-11T01:28:42.095Z,1007.27
2018-06-11T01:30:35.499Z,1007.26
2018-06-11T01:31:35.312Z,1007.26
2018-06-11T01:33:28.586Z,1007.26
2018-06-11T01:37:28.731Z,1007.25
2018-06-11T01:38:13.796Z,1007.24
2018-06-11T01:40:07.195Z,1007.21
2018-06-11T01:41:07.011Z,1007.17
2018-06-11T01:43:00.447Z,1007.16
2018-06-11T01:44:00.384Z,1007.17
2018-06-11T01:45:53.785Z,1007.12
2018-06-11T01:46:53.597Z,1007.10
2018-06-11T01:48:46.881Z,1007.13
2018-06-11T01:49:46.810Z,1007.11
2018-06-11T01:51:40.106Z,1007.11
2018-06-11T01:52:40.027Z,1007.09
2018-06-11T01:54:33.302Z,1007.05
2018-06-11T01:55:33.242Z,1007.05
2018-06-11T01:57:26.535Z,1007.03
2018-06-11T01:58:26.455Z,1007.06
2018-06-11T02:00:19.753Z,1007.02
2018-06-11T02:01:19.665Z,1007.01
2018-06-11T02:03:13.549Z,1006.91
2018-06-11T02:04:12.880Z,1006.88
2018-06-11T02:06:06.175Z,1006.85
2018-06-11T02:07:06.097Z,1006.86
2018-06-11T02:08:59.475Z,1006.84
2018-06-11T02:09:59.308Z,1006.86
2018-06-11T02:11:52.603Z,1006.83
2018-06-11T02:12:52.525Z,1006.80
2018-06-11T02:14:45.799Z,1006.85
2018-06-11T02:15:45.736Z,1006.86
2018-06-11T02:17:39.021Z,1006.83
2018-06-11T02:18:38.940Z,1006.83
2018-06-11T02:20:32.218Z,1006.82
2018-06-11T02:21:32.154Z,1006.84
2018-06-11T02:23:25.449Z,1006.86
2018-06-11T02:24:25.368Z,1006.82
2018-06-11T02:26:18.660Z,1006.81
2018-06-11T02:27:18.581Z,1006.87
2018-06-11T02:29:11.854Z,1006.90
2018-06-11T02:30:11.794Z,1006.88
2018-06-11T02:32:05.092Z,1006.89
2018-06-11T02:33:05.009Z,1006.86
2018-06-11T02:34:58.449Z,1006.83
2018-06-11T02:35:58.385Z,1006.82
2018-06-11T02:37:51.683Z,1006.76
2018-06-11T02:38:51.600Z,1006.74
2018-06-11T02:40:44.877Z,1006.73
2018-06-11T02:41:44.813Z,1006.59
2018-06-11T02:43:38.110Z,1006.59
2018-06-11T02:44:38.028Z,1006.57
2018-06-11T02:46:31.910Z,1006.58
2018-06-11T02:47:31.241Z,1006.64
2018-06-11T02:49:24.544Z,1006.64
2018-06-11T02:50:24.462Z,1006.65
2018-06-11T02:52:17.758Z,1006.61
2018-06-11T02:53:17.676Z,1006.64
2018-06-11T02:55:10.952Z,1006.67
2018-06-11T02:56:10.889Z,1006.66
2018-06-11T02:58:04.186Z,1006.69
2018-06-11T02:59:04.104Z,1006.70
2018-06-11T03:00:57.485Z,1006.70
2018-06-11T03:01:57.320Z,1006.70
2018-06-11T03:03:50.612Z,1006.69
2018-06-11T03:04:50.533Z,1006.70
2018-06-11T03:06:43.809Z,1006.72
2018-06-11T03:07:43.746Z,1006.73
2018-06-11T03:09:37.041Z,1006.74
2018-06-11T03:10:36.959Z,1006.71
2018-06-11T03:12:30.444Z,1006.70
2018-06-11T03:13:30.405Z,1006.71
2018-06-11T03:15:23.677Z,1006.61
2018-06-11T03:16:23.596Z,1006.61
2018-06-11T03:18:16.874Z,1006.58
2018-06-11T03:19:16.811Z,1006.57
2018-06-11T03:21:10.104Z,1006.54
2018-06-11T03:22:10.025Z,1006.55
2018-06-11T03:24:03.321Z,1006.59
2018-06-11T03:25:03.237Z,1006.60
2018-06-11T03:26:56.515Z,1006.59
2018-06-11T03:27:56.450Z,1006.60
2018-06-11T03:29:49.746Z,1006.58
2018-06-11T03:30:49.666Z,1006.64
2018-06-11T03:32:42.942Z,1006.66
2018-06-11T03:33:42.878Z,1006.67
2018-06-11T03:35:36.184Z,1006.71
2018-06-11T03:36:36.098Z,1006.72
2018-06-11T03:38:29.375Z,1006.74
2018-06-11T03:39:29.311Z,1006.75
2018-06-11T03:41:22.607Z,1006.73
2018-06-11T03:42:22.525Z,1006.75
2018-06-11T03:44:15.848Z,1006.80
2018-06-11T03:45:15.768Z,1006.83
2018-06-11T03:47:09.168Z,1006.87
2018-06-11T03:48:08.982Z,1006.90
2018-06-11T03:50:02.469Z,1006.92
2018-06-11T03:51:02.387Z,1006.94
2018-06-11T03:52:55.662Z,1006.99
2018-06-11T03:53:55.599Z,1006.93
2018-06-11T03:55:48.895Z,1006.97
2018-06-11T03:56:48.815Z,1007.00
2018-06-11T03:58:42.089Z,1007.06
2018-06-11T03:59:42.027Z,1007.05
2018-06-11T04:01:35.428Z,1007.08
2018-06-11T04:02:35.247Z,1007.05
2018-06-11T04:04:28.518Z,1007.04
2018-06-11T04:05:28.454Z,1007.05
2018-06-11T04:07:21.782Z,1007.05
2018-06-11T04:08:21.697Z,1007.07
2018-06-11T04:10:15.005Z,1007.03
2018-06-11T04:11:14.918Z,1007.09
2018-06-11T04:13:08.187Z,1007.06
2018-06-11T04:14:08.124Z,1007.08
2018-06-11T04:16:01.522Z,1007.12
2018-06-11T04:17:01.340Z,1007.11
2018-06-11T04:18:54.613Z,1007.12
2018-06-11T04:19:54.549Z,1007.10
2018-06-11T04:21:47.846Z,1007.14
2018-06-11T04:22:47.762Z,1007.14
2018-06-11T04:24:41.039Z,1007.15
2018-06-11T04:25:40.976Z,1007.17
2018-06-11T04:27:34.274Z,1007.24
2018-06-11T04:28:34.194Z,1007.22
2018-06-11T04:30:27.468Z,1007.22
2018-06-11T04:31:27.405Z,1007.29
2018-06-11T04:33:20.707Z,1007.25
2018-06-11T04:34:20.625Z,1007.26
2018-06-11T04:36:13.922Z,1007.28
2018-06-11T04:37:13.835Z,1007.24
2018-06-11T04:39:07.111Z,1007.31
2018-06-11T04:40:07.050Z,1007.26
2018-06-11T04:42:00.468Z,1007.28
2018-06-11T04:43:00.386Z,1007.32
2018-06-11T04:44:53.660Z,1007.29
2018-06-11T04:45:53.599Z,1007.27
2018-06-11T04:47:46.891Z,1007.26
2018-06-11T04:48:46.812Z,1007.22
2018-06-11T04:50:40.087Z,1007.27
2018-06-11T04:51:40.024Z,1007.28
2018-06-11T04:53:33.320Z,1007.30
2018-06-11T04:54:33.236Z,1007.27
2018-06-11T04:56:26.511Z,1007.34
2018-06-11T04:57:26.447Z,1007.31
2018-06-11T04:59:19.751Z,1007.30
2018-06-11T05:00:19.670Z,1007.30
2018-06-11T05:02:12.963Z,1007.25
2018-06-11T05:03:12.881Z,1007.22
2018-06-11T05:05:06.157Z,1007.20
2018-06-11T05:06:06.093Z,1007.24
2018-06-11T05:07:59.492Z,1007.28
2018-06-11T05:08:59.307Z,1007.28
2018-06-11T05:10:52.584Z,1007.27
2018-06-11T05:11:52.521Z,1007.25
2018-06-11T05:13:45.817Z,1007.25
2018-06-11T05:14:45.734Z,1007.29
2018-06-11T05:16:39.011Z,1007.22
2018-06-11T05:17:38.948Z,1007.23
2018-06-11T05:19:32.244Z,1007.22
2018-06-11T05:20:32.163Z,1007.21
2018-06-11T05:22:25.463Z,1007.16
2018-06-11T05:23:25.378Z,1007.17
2018-06-11T05:25:18.654Z,1007.12
2018-06-11T05:26:18.590Z,1007.19
2018-06-11T05:28:11.387Z,1007.17
2018-06-11T05:29:11.310Z,1007.11
2018-06-11T05:31:04.686Z,1007.12
2018-06-11T05:32:04.519Z,1007.12
2018-06-11T05:33:57.815Z,1007.10
2018-06-11T05:34:57.734Z,1007.14
2018-06-11T05:36:51.118Z,1007.18
2018-06-11T05:37:50.948Z,1007.17
2018-06-11T05:39:44.248Z,1007.18
2018-06-11T05:40:44.167Z,1007.24
2018-06-11T05:42:37.441Z,1007.11
2018-06-11T05:43:37.377Z,1007.20
2018-06-11T05:45:30.667Z,1007.21
2018-06-11T05:46:30.595Z,1007.19
2018-06-11T05:48:23.885Z,1007.27
2018-06-11T05:49:23.791Z,1007.28
2018-06-11T05:51:17.056Z,1007.31
2018-06-11T05:52:16.996Z,1007.27
2018-06-11T05:54:10.897Z,1007.34
2018-06-11T05:55:10.385Z,1007.34
2018-06-11T05:57:03.675Z,1007.37
2018-06-11T05:58:03.601Z,1007.38
2018-06-11T05:59:56.898Z,1007.33
2018-06-11T06:00:56.829Z,1007.38
2018-06-11T06:02:50.099Z,1007.48
2018-06-11T06:03:50.037Z,1007.39
2018-06-11T06:05:43.337Z,1007.46
2018-06-11T06:06:43.257Z,1007.44
2018-06-11T06:08:36.645Z,1007.44
2018-06-11T06:09:36.475Z,1007.51
2018-06-11T06:11:29.774Z,1007.51
2018-06-11T06:12:29.693Z,1007.53
2018-06-11T06:14:23.096Z,1007.58
2018-06-11T06:15:22.914Z,1007.57
2018-06-11T06:17:16.296Z,1007.59
2018-06-11T06:18:16.133Z,1007.64
2018-06-11T06:20:09.431Z,1007.60
2018-06-11T06:21:09.352Z,1007.60
2018-06-11T06:23:02.734Z,1007.55
2018-06-11T06:24:02.565Z,1007.57
2018-06-11T06:25:55.859Z,1007.57
2018-06-11T06:26:55.780Z,1007.55
2018-06-11T06:28:49.058Z,1007.59
2018-06-11T06:29:48.998Z,1007.55
2018-06-11T06:31:42.473Z,1007.61
2018-06-11T06:32:42.390Z,1007.61
2018-06-11T06:34:35.774Z,1007.63
2018-06-11T06:35:35.600Z,1007.65
2018-06-11T06:37:28.889Z,1007.68
2018-06-11T06:38:28.812Z,1007.66
2018-06-11T06:40:22.214Z,1007.69
2018-06-11T06:41:22.024Z,1007.66
2018-06-11T06:43:15.444Z,1007.68
2018-06-11T06:44:15.389Z,1007.71
2018-06-11T06:46:08.673Z,1007.68
2018-06-11T06:47:08.595Z,1007.72
2018-06-11T06:49:01.866Z,1007.68
2018-06-11T06:50:01.811Z,1007.67
2018-06-11T06:51:56.095Z,1007.69
2018-06-11T06:52:56.016Z,1007.68
2018-06-11T06:54:49.454Z,1007.76
2018-06-11T06:55:49.391Z,1007.71
2018-06-11T06:57:42.683Z,1007.79
2018-06-11T06:58:42.605Z,1007.82
2018-06-11T07:00:35.892Z,1007.74
2018-06-11T07:01:35.814Z,1007.74
2018-06-11T07:03:29.090Z,1007.77
2018-06-11T07:04:29.025Z,1007.79
2018-06-11T07:06:22.427Z,1007.82
2018-06-11T07:07:22.240Z,1007.81
2018-06-11T07:09:15.625Z,1007.78
2018-06-11T07:10:15.455Z,1007.76
2018-06-11T07:12:08.863Z,1007.79
2018-06-11T07:13:08.670Z,1007.78
2018-06-11T07:15:01.938Z,1007.77
2018-06-11T07:16:01.883Z,1007.78
2018-06-11T07:17:55.178Z,1007.76
2018-06-11T07:18:55.101Z,1007.79
2018-06-11T07:20:49.377Z,1007.78
2018-06-11T07:21:49.311Z,1007.77
2018-06-11T07:23:42.601Z,1007.76
2018-06-11T07:24:42.521Z,1007.82
2018-06-11T07:26:35.813Z,1007.81
2018-06-11T07:27:35.733Z,1007.81
2018-06-11T07:29:29.121Z,1007.84
2018-06-11T07:30:28.948Z,1007.89
2018-06-11T07:32:22.238Z,1007.93
2018-06-11T07:33:22.162Z,1007.98
2018-06-11T07:35:15.546Z,1007.81
2018-06-11T07:36:15.377Z,1007.76
2018-06-11T07:38:08.687Z,1007.85
2018-06-11T07:39:08.607Z,1007.79
2018-06-11T07:41:01.911Z,1008.46
2018-06-11T07:42:01.822Z,1008.44
2018-06-11T07:43:55.116Z,1007.77
2018-06-11T07:44:55.041Z,1007.78
2018-06-11T07:46:48.327Z,1007.84
2018-06-11T07:47:48.270Z,1007.89
2018-06-11T07:49:41.576Z,1007.85
2018-06-11T07:50:41.500Z,1007.89
2018-06-11T07:52:34.797Z,1007.96
2018-06-11T07:53:34.721Z,1007.87
2018-06-11T07:55:28.001Z,1007.82
2018-06-11T07:56:27.941Z,1007.86
2018-06-11T07:58:21.240Z,1007.99
2018-06-11T07:59:21.165Z,1008.58
2018-06-11T08:01:14.452Z,1008.13
2018-06-11T08:02:14.397Z,1008.21
2018-06-11T08:04:07.696Z,1007.88
2018-06-11T08:05:07.625Z,1008.03
2018-06-11T08:07:01.013Z,1008.21
2018-06-11T08:08:00.858Z,1008.62
2018-06-11T08:09:54.159Z,1008.21
2018-06-11T08:10:54.085Z,1008.60
2018-06-11T08:12:47.479Z,1007.81
2018-06-11T08:13:47.404Z,1007.88
2018-06-11T08:15:40.812Z,1008.39
2018-06-11T08:16:40.630Z,1008.43
2018-06-11T08:18:34.042Z,1008.07
2018-06-11T08:19:33.862Z,1008.14
2018-06-11T08:21:27.146Z,1008.08
2018-06-11T08:22:27.092Z,1008.04
2018-06-11T08:24:20.425Z,1007.95
2018-06-11T08:25:20.353Z,1007.85
2018-06-11T08:27:13.639Z,1007.82
2018-06-11T08:28:13.587Z,1007.79
2018-06-11T08:30:06.888Z,1007.77
2018-06-11T08:31:06.817Z,1007.77
2018-06-11T08:33:00.109Z,1007.70
2018-06-11T08:34:00.041Z,1007.78
2018-06-11T08:35:53.477Z,1007.77
2018-06-11T08:36:53.400Z,1007.80
2018-06-11T08:38:46.812Z,1007.78
2018-06-11T08:39:46.631Z,1007.71
2018-06-11T08:41:39.915Z,1007.73
2018-06-11T08:42:39.862Z,1007.71
2018-06-11T08:44:33.161Z,1007.65
2018-06-11T08:45:33.091Z,1007.60
2018-06-11T08:47:26.392Z,1007.61
2018-06-11T08:48:26.337Z,1007.67
2018-06-11T08:50:19.634Z,1007.66
2018-06-11T08:51:19.563Z,1007.64
2018-06-11T08:53:12.845Z,1007.60
2018-06-11T08:54:12.792Z,1007.61
2018-06-11T08:56:07.202Z,1007.56
2018-06-11T08:57:07.015Z,1007.54
2018-06-11T08:59:00.296Z,1007.59
2018-06-11T09:00:00.253Z,1007.60
2018-06-11T09:01:53.538Z,1007.55
2018-06-11T09:02:53.472Z,1007.57
2018-06-11T09:04:46.769Z,1007.57
2018-06-11T09:05:46.701Z,1007.57
2018-06-11T09:07:39.973Z,1007.49
2018-06-11T09:08:39.918Z,1007.51
2018-06-11T09:10:33.216Z,1007.49
2018-06-11T09:11:33.145Z,1007.58
2018-06-11T09:13:26.535Z,1007.65
2018-06-11T09:14:26.378Z,1007.70
2018-06-11T09:16:19.788Z,1007.67
2018-06-11T09:17:19.606Z,1007.58
2018-06-11T09:19:12.995Z,1007.54
2018-06-11T09:20:12.837Z,1007.56
2018-06-11T09:22:06.134Z,1007.48
2018-06-11T09:23:06.061Z,1007.49
2018-06-11T09:24:59.526Z,1007.48
2018-06-11T09:25:59.402Z,1007.44
2018-06-11T09:27:52.792Z,1007.43
2018-06-11T09:28:52.626Z,1007.45
2018-06-11T09:30:45.926Z,1007.41
2018-06-11T09:31:45.854Z,1007.41
2018-06-11T09:33:39.139Z,1007.51
2018-06-11T09:34:39.084Z,1007.46
2018-06-11T09:36:32.387Z,1007.44
2018-06-11T09:37:32.310Z,1007.44
2018-06-11T09:39:25.594Z,1007.40
2018-06-11T09:40:25.542Z,1007.42
2018-06-11T09:42:18.848Z,1007.43
2018-06-11T09:43:18.770Z,1007.47
2018-06-11T09:45:12.075Z,1007.46
2018-06-11T09:46:12.000Z,1007.48
2018-06-11T09:48:05.471Z,1007.37
2018-06-11T09:49:05.446Z,1007.42
2018-06-11T09:50:58.808Z,1007.48
2018-06-11T09:51:58.626Z,1007.51
2018-06-11T09:53:51.906Z,1007.50
2018-06-11T09:54:51.853Z,1007.53
2018-06-11T09:56:45.153Z,1007.61
2018-06-11T09:57:45.080Z,1007.61
2018-06-11T09:59:38.364Z,1007.64
2018-06-11T10:00:38.307Z,1007.56
2018-06-11T10:02:31.621Z,1007.56
2018-06-11T10:03:31.549Z,1007.59
2018-06-11T10:05:24.942Z,1007.56
2018-06-11T10:06:24.775Z,1007.56
2018-06-11T10:08:18.081Z,1007.56
2018-06-11T10:09:18.009Z,1007.55
2018-06-11T10:11:11.316Z,1007.63
2018-06-11T10:12:11.286Z,1007.66
2018-06-11T10:14:04.634Z,1007.67
2018-06-11T10:15:04.470Z,1007.56
2018-06-11T10:16:57.771Z,1007.47
2018-06-11T10:17:57.703Z,1007.44
2018-06-11T10:19:50.987Z,1007.54
2018-06-11T10:20:50.933Z,1007.53
2018-06-11T10:22:44.239Z,1007.55
2018-06-11T10:23:44.164Z,1007.53
2018-06-11T10:25:37.444Z,1007.68
2018-06-11T10:26:37.400Z,1007.65
2018-06-11T10:28:30.693Z,1007.61
2018-06-11T10:29:30.625Z,1007.64
2018-06-11T10:31:23.908Z,1007.63
2018-06-11T10:32:23.924Z,1007.67
2018-06-11T10:34:17.156Z,1007.60
2018-06-11T10:35:17.086Z,1007.52
2018-06-11T10:37:10.997Z,1007.57
2018-06-11T10:38:10.403Z,1007.56
2018-06-11T10:40:03.689Z,1007.65
2018-06-11T10:41:03.635Z,1007.58
2018-06-11T10:42:57.047Z,1007.58
2018-06-11T10:43:56.865Z,1007.52
2018-06-11T10:45:50.152Z,1007.52
2018-06-11T10:46:50.103Z,1007.47
2018-06-11T10:48:43.405Z,1007.41
2018-06-11T10:49:43.333Z,1007.43
2018-06-11T10:51:36.617Z,1007.43
2018-06-11T10:52:36.564Z,1007.46
2018-06-11T10:54:29.864Z,1007.35
2018-06-11T10:55:29.796Z,1007.43
2018-06-11T10:57:23.119Z,1007.42
2018-06-11T10:58:23.043Z,1007.41
2018-06-11T11:00:16.458Z,1007.39
2018-06-11T11:01:16.402Z,1007.40
2018-06-11T11:03:09.818Z,1007.38
2018-06-11T11:04:09.631Z,1007.36
2018-06-11T11:06:03.035Z,1007.37
2018-06-11T11:07:02.872Z,1007.36
2018-06-11T11:08:56.298Z,1007.36
2018-06-11T11:09:56.125Z,1007.34
2018-06-11T11:11:49.412Z,1007.36
2018-06-11T11:12:49.371Z,1007.31
2018-06-11T11:14:42.667Z,1007.32
2018-06-11T11:15:42.593Z,1007.30
2018-06-11T11:17:35.883Z,1007.20
2018-06-11T11:18:35.830Z,1007.25
2018-06-11T11:20:29.136Z,1007.18
2018-06-11T11:21:29.066Z,1007.19
2018-06-11T11:23:22.474Z,1007.14
2018-06-11T11:24:22.404Z,1007.15
2018-06-11T11:26:15.691Z,1007.10
2018-06-11T11:27:15.638Z,1007.06
2018-06-11T11:29:08.944Z,1007.10
2018-06-11T11:30:08.874Z,1007.08
2018-06-11T11:32:02.156Z,1007.08
2018-06-11T11:33:02.104Z,1007.01
2018-06-11T11:34:55.411Z,1006.96
2018-06-11T11:35:55.338Z,1006.95
2018-06-11T11:37:48.626Z,1006.96
2018-06-11T11:38:48.573Z,1006.93
2018-06-11T11:40:41.875Z,1006.96
2018-06-11T11:41:41.804Z,1007.01
2018-06-11T11:43:35.109Z,1006.86
2018-06-11T11:44:35.033Z,1006.87
2018-06-11T11:46:28.322Z,1006.82
2018-06-11T11:47:28.263Z,1006.90
2018-06-11T11:49:21.567Z,1006.83
2018-06-11T11:50:21.495Z,1006.81
2018-06-11T11:52:14.888Z,1006.83
2018-06-11T11:53:14.731Z,1006.80
2018-06-11T11:55:08.897Z,1006.72
2018-06-11T11:56:08.820Z,1006.70
2018-06-11T11:58:02.103Z,1006.68
2018-06-11T11:59:02.049Z,1006.65
2018-06-11T12:00:55.474Z,1006.62
2018-06-11T12:01:55.401Z,1006.66
2018-06-11T12:03:48.683Z,1006.61
2018-06-11T12:04:48.627Z,1006.58
2018-06-11T12:06:41.934Z,1006.52
2018-06-11T12:07:41.884Z,1006.44
2018-06-11T12:09:35.181Z,1006.40
2018-06-11T12:10:35.109Z,1006.39
2018-06-11T12:12:28.388Z,1006.38
2018-06-11T12:13:28.330Z,1006.31
2018-06-11T12:15:21.641Z,1006.34
2018-06-11T12:16:21.563Z,1006.33
2018-06-11T12:18:14.845Z,1006.31
2018-06-11T12:19:14.788Z,1006.28
2018-06-11T12:21:08.091Z,1006.26
2018-06-11T12:22:08.022Z,1006.23
2018-06-11T12:24:01.451Z,1006.26
2018-06-11T12:25:01.396Z,1006.22
2018-06-11T12:26:54.723Z,1006.20
2018-06-11T12:27:54.643Z,1006.22
2018-06-11T12:29:47.922Z,1006.13
2018-06-11T12:30:47.866Z,1006.23
2018-06-11T12:32:41.275Z,1006.09
2018-06-11T12:33:41.101Z,1006.09
2018-06-11T12:35:34.405Z,1006.07
2018-06-11T12:36:34.329Z,1006.05
2018-06-11T12:38:27.718Z,1006.10
2018-06-11T12:39:27.554Z,1006.07
2018-06-11T12:41:20.963Z,1006.06
2018-06-11T12:42:20.779Z,1006.08
2018-06-11T12:44:14.672Z,1006.07
2018-06-11T12:45:14.002Z,1006.21
2018-06-11T12:47:07.470Z,1006.14
2018-06-11T12:48:07.395Z,1006.11
2018-06-11T12:50:00.680Z,1006.04
2018-06-11T12:51:00.620Z,1006.04
2018-06-11T12:52:53.921Z,1006.05
2018-06-11T12:53:53.845Z,1006.02
2018-06-11T12:55:47.128Z,1006.06
2018-06-11T12:56:47.073Z,1006.08
2018-06-11T12:58:40.383Z,1006.08
2018-06-11T12:59:40.305Z,1005.98
2018-06-11T13:01:33.647Z,1005.94
2018-06-11T13:02:33.528Z,1005.93
2018-06-11T13:04:26.919Z,1005.91
2018-06-11T13:05:26.752Z,1005.82
2018-06-11T13:07:20.052Z,1005.90
2018-06-11T13:08:19.981Z,1005.87
2018-06-11T13:10:13.456Z,1005.89
2018-06-11T13:11:13.395Z,1005.90
2018-06-11T13:13:06.693Z,1005.80
2018-06-11T13:14:06.671Z,1005.82
2018-06-11T13:16:00.013Z,1005.81
2018-06-11T13:16:59.841Z,1005.86
2018-06-11T13:18:53.146Z,1005.79
2018-06-11T13:19:53.065Z,1005.80
2018-06-11T13:21:46.356Z,1005.84
2018-06-11T13:22:46.295Z,1005.75
2018-06-11T13:24:39.597Z,1005.68
2018-06-11T13:25:39.520Z,1005.63
2018-06-11T13:27:32.825Z,1005.63
2018-06-11T13:28:32.750Z,1005.59
2018-06-11T13:30:26.030Z,1005.61
2018-06-11T13:31:25.974Z,1005.63
2018-06-11T13:33:19.477Z,1005.52
2018-06-11T13:34:19.398Z,1005.52
2018-06-11T13:36:12.786Z,1005.50
2018-06-11T13:37:12.630Z,1005.53
2018-06-11T13:39:05.939Z,1005.52
2018-06-11T13:40:05.863Z,1005.53
2018-06-11T13:41:59.155Z,1005.46
2018-06-11T13:42:59.100Z,1005.49
2018-06-11T13:44:52.409Z,1005.41
2018-06-11T13:45:52.332Z,1005.37
2018-06-11T13:47:45.739Z,1005.35
2018-06-11T13:48:45.562Z,1005.29
2018-06-11T13:50:38.870Z,1005.27
2018-06-11T13:51:38.793Z,1005.28
2018-06-11T13:53:32.104Z,1005.24
2018-06-11T13:54:32.039Z,1005.27
2018-06-11T13:56:25.419Z,1005.34
2018-06-11T13:57:25.263Z,1005.33
2018-06-11T13:59:18.674Z,1005.28
2018-06-11T14:00:18.501Z,1005.20
2018-06-11T14:02:11.890Z,1005.21
2018-06-11T14:03:11.732Z,1005.07
2018-06-11T14:05:05.045Z,1005.16
2018-06-11T14:06:04.969Z,1005.06
2018-06-11T14:07:58.893Z,1005.13
2018-06-11T14:08:58.394Z,1005.10
2018-06-11T14:10:51.704Z,1005.09
2018-06-11T14:11:51.631Z,1005.02
2018-06-11T14:13:44.941Z,1005.03
2018-06-11T14:14:44.866Z,1005.03
2018-06-11T14:16:38.156Z,1005.03
2018-06-11T14:17:38.109Z,1005.03
2018-06-11T14:19:32.013Z,1005.07
2018-06-11T14:20:31.393Z,1004.99
2018-06-11T14:22:24.684Z,1005.07
2018-06-11T14:23:24.626Z,1005.09
2018-06-11T14:25:17.938Z,1005.01
2018-06-11T14:26:17.865Z,1004.98
2018-06-11T14:28:11.149Z,1004.87
2018-06-11T14:29:11.092Z,1004.82
2018-06-11T14:31:04.464Z,1004.81
2018-06-11T14:32:04.391Z,1004.79
2018-06-11T14:33:57.823Z,1004.89
2018-06-11T14:34:57.627Z,1004.85
2018-06-11T14:36:50.920Z,1004.83
2018-06-11T14:37:50.864Z,1004.85
2018-06-11T14:39:44.272Z,1004.89
2018-06-11T14:40:44.101Z,1004.88
2018-06-11T14:42:37.395Z,1004.96
2018-06-11T14:43:37.339Z,1004.96
2018-06-11T14:45:30.651Z,1005.07
2018-06-11T14:46:30.576Z,1004.99
2018-06-11T14:48:23.968Z,1005.08
2018-06-11T14:49:23.815Z,1005.07
2018-06-11T14:51:17.725Z,1005.02
2018-06-11T14:52:17.082Z,1005.08
2018-06-11T14:54:10.345Z,1005.07
2018-06-11T14:55:10.292Z,1005.14
2018-06-11T14:57:03.601Z,1005.21
2018-06-11T14:58:03.589Z,1005.20
2018-06-11T14:59:56.856Z,1005.19
2018-06-11T15:00:56.765Z,1005.16
2018-06-11T15:02:50.063Z,1005.23
2018-06-11T15:03:50.009Z,1005.18
2018-06-11T15:05:43.480Z,1005.32
2018-06-11T15:06:43.396Z,1005.29
2018-06-11T15:08:36.701Z,1005.28
2018-06-11T15:09:36.647Z,1005.31
2018-06-11T15:11:30.560Z,1005.22
2018-06-11T15:12:29.883Z,1005.15
2018-06-11T15:14:23.175Z,1005.13
2018-06-11T15:15:23.121Z,1005.05
2018-06-11T15:17:16.433Z,1005.14
2018-06-11T15:18:16.360Z,1005.06
2018-06-11T15:20:09.677Z,1005.01
2018-06-11T15:21:09.598Z,1005.03
2018-06-11T15:23:02.903Z,1004.94
2018-06-11T15:24:02.831Z,1004.98
2018-06-11T15:25:56.150Z,1004.96
2018-06-11T15:26:56.072Z,1004.95
2018-06-11T15:28:49.453Z,1004.92
2018-06-11T15:29:49.400Z,1004.93
2018-06-11T15:31:42.722Z,1004.87
2018-06-11T15:32:42.648Z,1004.82
2018-06-11T15:34:35.963Z,1004.83
2018-06-11T15:35:35.886Z,1004.81
2018-06-11T15:37:29.213Z,1004.76
2018-06-11T15:38:29.132Z,1004.76
2018-06-11T15:40:22.523Z,1004.73
2018-06-11T15:41:22.370Z,1004.75
2018-06-11T15:43:15.782Z,1004.81
2018-06-11T15:44:15.649Z,1004.85
2018-06-11T15:46:08.960Z,1004.80
2018-06-11T15:47:08.884Z,1004.77
2018-06-11T15:49:02.176Z,1004.78
2018-06-11T15:50:02.166Z,1004.75
2018-06-11T15:51:55.471Z,1004.74
2018-06-11T15:52:55.399Z,1004.73
2018-06-11T15:54:48.687Z,1004.63
2018-06-11T15:55:48.632Z,1004.76
2018-06-11T15:57:41.934Z,1004.78
2018-06-11T15:58:41.863Z,1004.79
2018-06-11T16:00:35.197Z,1004.77
2018-06-11T16:01:35.096Z,1004.72
2018-06-11T16:03:28.403Z,1004.64
2018-06-11T16:04:28.331Z,1004.67
2018-06-11T16:06:21.675Z,1004.67
2018-06-11T16:07:21.588Z,1004.62
2018-06-11T16:09:14.876Z,1004.58
2018-06-11T16:10:14.821Z,1004.65
2018-06-11T16:12:08.256Z,1004.60
2018-06-11T16:13:08.056Z,1004.62
2018-06-11T16:15:01.965Z,1004.58
2018-06-11T16:16:01.397Z,1004.56
2018-06-11T16:17:54.701Z,1004.59
2018-06-11T16:18:54.623Z,1004.58
2018-06-11T16:20:48.014Z,1004.56
2018-06-11T16:21:47.857Z,1004.61
2018-06-11T16:23:41.165Z,1004.59
2018-06-11T16:24:41.094Z,1004.54
2018-06-11T16:26:34.387Z,1004.56
2018-06-11T16:27:34.329Z,1004.56
2018-06-11T16:29:27.640Z,1004.56
2018-06-11T16:30:27.565Z,1004.56
2018-06-11T16:32:20.875Z,1004.56
2018-06-11T16:33:20.803Z,1004.56
2018-06-11T16:35:14.092Z,1004.54
2018-06-11T16:36:14.036Z,1004.53
2018-06-11T16:38:07.472Z,1004.49
2018-06-11T16:39:07.397Z,1004.51
2018-06-11T16:41:00.788Z,1004.52
2018-06-11T16:42:00.632Z,1004.51
2018-06-11T16:43:53.940Z,1004.47
2018-06-11T16:44:53.871Z,1004.43
2018-06-11T16:46:47.162Z,1004.45
2018-06-11T16:47:47.119Z,1004.42
2018-06-11T16:49:40.447Z,1004.42
2018-06-11T16:50:40.334Z,1004.40
2018-06-11T16:52:33.625Z,1004.39
2018-06-11T16:53:33.576Z,1004.40
2018-06-11T16:55:26.876Z,1004.40
2018-06-11T16:56:26.802Z,1004.39
2018-06-11T16:58:20.729Z,1004.35
2018-06-11T16:59:20.040Z,1004.39
2018-06-11T17:01:13.330Z,1004.46
2018-06-11T17:02:13.278Z,1004.49
2018-06-11T17:04:06.590Z,1004.49
2018-06-11T17:05:06.509Z,1004.50
2018-06-11T17:06:59.799Z,1004.46
2018-06-11T17:07:59.745Z,1004.49
2018-06-11T17:09:53.050Z,1004.46
2018-06-11T17:10:52.987Z,1004.41
2018-06-11T17:12:46.466Z,1004.42
2018-06-11T17:13:46.391Z,1004.38
2018-06-11T17:15:39.701Z,1004.43
2018-06-11T17:16:39.626Z,1004.39
2018-06-11T17:18:33.516Z,1004.37
2018-06-11T17:19:32.859Z,1004.39
2018-06-11T17:21:26.269Z,1004.33
2018-06-11T17:22:26.094Z,1004.36
2018-06-11T17:24:19.400Z,1004.40
2018-06-11T17:25:19.327Z,1004.41
2018-06-11T17:27:12.722Z,1004.44
2018-06-11T17:28:12.559Z,1004.43
2018-06-11T17:30:05.872Z,1004.46